Time;durP1;ratioP1;P1;durP2;ratioP2;P2;SDS_P1;SDS_P2;PMS_P1;PMS_P2;Temp;Humidity;BMP_temperature;BMP_pressure;BME280_temperature;BME280_humidity;BME280_pressure;Samples;Min_cycle;Max_cycle;Signal;HPM_P1;HPM_P2
2023/06/03 00:01:50;;;;;;;15.30;3.80;;;;;;;9.33;66.29;99389.34;135991;1276;22527;-66
2023/06/03 00:04:52;;;;;;;15.80;4.00;;;;;;;9.24;66.75;99393.96;136001;1276;22648;-66
2023/06/03 00:07:55;;;;;;;14.70;3.90;;;;;;;9.18;67.38;99390.55;135998;1276;22541;-65
2023/06/03 00:11:00;;;;;;;17.20;3.80;;;;;;;9.13;67.10;99395.48;135922;1276;22542;-67
2023/06/03 00:14:03;;;;;;;15.80;4.10;;;;;;;9.06;67.26;99395.65;135883;1276;22546;-69
2023/06/03 00:17:05;;;;;;;14.60;3.90;;;;;;;9.00;67.92;99393.48;135882;1276;22643;-69
2023/06/03 00:20:09;;;;;;;;;;;;;;;9.02;67.17;99398.10;135927;1274;24315;-70
2023/06/03 00:23:12;;;;;;;16.80;4.30;;;;;;;9.02;67.01;99399.52;136009;1260;22982;-69
2023/06/03 00:26:17;;;;;;;;;;;;;;;9.00;67.03;99401.33;136064;1276;22500;-69
2023/06/03 00:29:20;;;;;;;16.20;4.10;;;;;;;8.92;67.23;99408.16;135994;1276;25452;-68
2023/06/03 00:32:22;;;;;;;;;;;;;;;8.82;67.32;99410.50;135945;1260;22625;-67
2023/06/03 00:35:25;;;;;;;15.70;4.20;;;;;;;8.78;67.18;99413.98;135980;1276;22775;-68
2023/06/03 00:38:27;;;;;;;15.00;3.80;;;;;;;8.77;66.66;99412.81;135989;1276;22523;-69
2023/06/03 00:41:30;;;;;;;;;;;;;;;8.69;66.39;99414.53;135980;1276;22512;-66
2023/06/03 00:44:32;;;;;;;19.40;3.90;;;;;;;8.67;66.64;99415.36;135994;1276;22533;-69
2023/06/03 00:47:35;;;;;;;;;;;;;;;8.67;66.25;99419.02;136052;1276;22510;-68
2023/06/03 00:50:39;;;;;;;16.50;3.60;;;;;;;8.69;66.20;99417.89;136030;1276;22533;-71
2023/06/03 00:53:41;;;;;;;16.50;4.40;;;;;;;8.74;66.42;99416.09;136049;1259;22518;-68
2023/06/03 00:56:44;;;;;;;17.80;4.50;;;;;;;8.74;66.27;99416.42;136033;1276;22636;-69
2023/06/03 00:59:46;;;;;;;;;;;;;;;8.77;66.08;99420.48;136014;1276;22488;-69
2023/06/03 01:02:49;;;;;;;20.10;4.20;;;;;;;8.83;65.76;99423.86;136020;1276;22617;-67
2023/06/03 01:05:54;;;;;;;16.30;4.40;;;;;;;8.66;66.01;99427.41;136010;1256;22517;-68
2023/06/03 01:08:57;;;;;;;18.40;4.10;;;;;;;8.61;65.98;99425.02;136028;1276;24384;-70
2023/06/03 01:11:59;;;;;;;20.00;4.70;;;;;;;8.56;66.14;99429.77;136047;1276;22530;-68
2023/06/03 01:15:03;;;;;;;17.30;4.30;;;;;;;8.43;66.47;99432.41;135974;1276;22528;-70
2023/06/03 01:18:05;;;;;;;13.80;3.70;;;;;;;8.36;66.62;99430.59;136046;1276;22579;-69
2023/06/03 01:21:08;;;;;;;;;;;;;;;8.30;66.73;99431.52;136019;1276;25472;-64
2023/06/03 01:24:11;;;;;;;15.30;4.00;;;;;;;8.29;66.51;99432.61;136038;1276;22523;-66
2023/06/03 01:27:14;;;;;;;19.10;3.90;;;;;;;8.25;66.78;99430.52;135977;1276;22525;-68
2023/06/03 01:30:16;;;;;;;19.20;4.30;;;;;;;8.19;66.67;99430.61;135957;1260;22996;-64
2023/06/03 01:33:19;;;;;;;;;;;;;;;8.14;66.95;99432.01;135997;1276;22512;-64
2023/06/03 01:36:21;;;;;;;17.90;3.90;;;;;;;8.03;67.18;99435.41;136016;1276;22530;-63
2023/06/03 01:39:24;;;;;;;14.70;3.80;;;;;;;7.82;67.82;99438.89;136048;1276;22540;-61
2023/06/03 01:42:29;;;;;;;14.10;3.80;;;;;;;7.65;68.69;99441.46;135981;1276;22521;-67
2023/06/03 01:45:31;;;;;;;15.70;3.40;;;;;;;7.54;68.68;99442.23;136056;1259;22520;-64
2023/06/03 01:48:34;;;;;;;;;;;;;;;7.46;67.96;99447.41;136045;1276;22743;-66
2023/06/03 01:51:37;;;;;;;18.40;4.10;;;;;;;7.38;68.30;99447.70;136002;1276;22523;-64
2023/06/03 01:54:42;;;;;;;17.50;3.60;;;;;;;7.37;68.49;99449.16;136037;1276;24044;-63
2023/06/03 01:57:46;;;;;;;13.60;3.60;;;;;;;7.35;68.62;99447.14;136023;1276;22537;-64
2023/06/03 02:00:49;;;;;;;20.60;4.20;;;;;;;7.45;68.36;99448.48;136028;1276;22997;-66
2023/06/03 02:03:52;;;;;;;23.70;4.00;;;;;;;7.59;67.79;99449.67;136064;1276;25555;-59
2023/06/03 02:06:55;;;;;;;17.40;3.90;;;;;;;7.59;68.12;99452.99;135968;1276;22529;-62
2023/06/03 02:09:58;;;;;;;33.40;5.90;;;;;;;7.61;67.43;99452.75;135994;1276;22539;-63
2023/06/03 02:13:03;;;;;;;17.70;4.40;;;;;;;7.56;66.97;99449.30;136024;1276;22540;-62
2023/06/03 02:16:05;;;;;;;16.10;3.80;;;;;;;7.51;67.08;99454.70;136059;1276;22549;-64
2023/06/03 02:19:08;;;;;;;;;;;;;;;7.50;67.63;99458.39;136034;1276;22494;-64
2023/06/03 02:22:12;;;;;;;20.30;4.60;;;;;;;7.41;67.74;99461.52;136059;1253;22553;-60
2023/06/03 02:25:22;;;;;;;15.00;3.90;;;;;;;7.37;67.58;99462.21;136019;1260;23167;-64
2023/06/03 02:28:24;;;;;;;20.10;4.20;;;;;;;7.33;68.28;99463.92;136019;1276;22532;-62
2023/06/03 02:31:27;;;;;;;;;;;;;;;7.36;68.25;99461.55;136018;1276;22528;-63
2023/06/03 02:34:32;;;;;;;16.10;3.90;;;;;;;7.31;68.26;99468.83;136050;1276;22517;-62
2023/06/03 02:37:34;;;;;;;18.80;4.20;;;;;;;7.41;67.85;99466.56;136030;1276;25425;-60
2023/06/03 02:40:37;;;;;;;20.00;4.40;;;;;;;7.46;67.27;99470.05;136040;1276;22532;-63
2023/06/03 02:43:42;;;;;;;;;;;;;;;7.43;67.07;99471.35;136026;1276;22495;-62
2023/06/03 02:46:45;;;;;;;28.10;6.00;;;;;;;7.43;66.94;99470.66;136014;1276;22535;-62
2023/06/03 02:49:47;;;;;;;;;;;;;;;7.28;67.86;99475.23;136028;1276;22636;-67
2023/06/03 02:52:50;;;;;;;20.50;4.60;;;;;;;7.21;67.83;99476.34;136066;1276;25465;-66
2023/06/03 02:55:55;;;;;;;;;;;;;;;7.15;68.05;99480.73;135972;1276;22491;-68
2023/06/03 02:58:57;;;;;;;24.70;5.80;;;;;;;7.10;68.48;99479.18;135996;1276;24353;-61
2023/06/03 03:02:00;;;;;;;25.10;4.40;;;;;;;7.11;68.54;99477.92;135978;1253;22513;-62
2023/06/03 03:05:06;;;;;;;17.30;4.10;;;;;;;7.18;68.42;99480.47;136021;1276;22532;-64
2023/06/03 03:08:12;;;;;;;18.50;3.90;;;;;;;7.24;68.31;99483.73;136040;1276;25337;-65
2023/06/03 03:11:14;;;;;;;21.30;4.30;;;;;;;7.34;68.28;99484.42;136038;1276;22540;-68
2023/06/03 03:14:17;;;;;;;;;;;;;;;7.34;68.18;99484.92;136044;1276;22521;-66
2023/06/03 03:17:19;;;;;;;20.00;4.40;;;;;;;7.38;68.70;99490.88;135977;1276;22553;-66
2023/06/03 03:20:22;;;;;;;22.20;5.20;;;;;;;7.56;68.10;99491.61;136051;1276;22553;-69
2023/06/03 03:23:24;;;;;;;;;;;;;;;7.66;68.21;99497.10;136050;1276;22494;-68
2023/06/03 03:26:29;;;;;;;23.30;4.20;;;;;;;7.78;68.04;99496.84;136039;1276;22663;-72
2023/06/03 03:29:33;;;;;;;19.70;3.90;;;;;;;7.89;67.58;99493.64;136032;1276;22516;-66
2023/06/03 03:32:36;;;;;;;16.00;3.60;;;;;;;8.05;67.52;99492.83;136027;1272;22541;-70
2023/06/03 03:35:40;;;;;;;25.60;5.00;;;;;;;8.35;67.50;99495.98;136047;1276;25507;-66
2023/06/03 03:38:45;;;;;;;17.50;4.90;;;;;;;8.60;66.79;99499.67;136025;1276;22572;-66
2023/06/03 03:41:48;;;;;;;17.30;4.00;;;;;;;8.78;66.74;99506.60;135955;1276;22528;-70
2023/06/03 03:44:50;;;;;;;18.10;4.30;;;;;;;8.92;66.64;99504.95;135991;1276;22526;-67
2023/06/03 03:47:53;;;;;;;14.90;3.40;;;;;;;9.14;66.47;99510.61;135992;1257;22512;-68
2023/06/03 03:50:56;;;;;;;16.40;3.80;;;;;;;9.42;65.98;99515.13;135990;1276;22604;-71
2023/06/03 03:53:58;;;;;;;15.20;3.40;;;;;;;9.71;65.33;99514.36;136013;1276;22520;-71
2023/06/03 03:57:01;;;;;;;16.20;3.70;;;;;;;9.91;64.52;99516.21;136014;1276;22523;-64
2023/06/03 04:00:06;;;;;;;17.00;3.60;;;;;;;10.02;63.73;99514.11;136003;1276;22528;-67
2023/06/03 04:03:09;;;;;;;17.80;3.60;;;;;;;10.28;63.86;99518.81;136037;1276;25335;-71
2023/06/03 04:06:12;;;;;;;30.40;5.60;;;;;;;10.44;63.76;99521.21;135980;1276;22592;-70
2023/06/03 04:09:15;;;;;;;32.70;6.30;;;;;;;10.62;63.83;99523.66;136043;1276;22553;-70
2023/06/03 04:12:18;;;;;;;18.30;3.90;;;;;;;10.84;63.42;99528.33;136040;1260;22520;-70
2023/06/03 04:15:24;;;;;;;32.20;5.40;;;;;;;11.04;63.00;99534.33;135998;1260;22522;-68
2023/06/03 04:18:27;;;;;;;74.40;12.20;;;;;;;11.16;62.40;99536.52;136013;1273;22528;-68
2023/06/03 04:21:29;;;;;;;;;;;;;;;11.33;62.95;99532.09;135954;1276;22490;-68
2023/06/03 04:24:32;;;;;;;21.70;4.50;;;;;;;11.60;62.71;99536.11;135930;1276;22519;-70
2023/06/03 04:27:34;;;;;;;44.30;7.50;;;;;;;11.77;61.87;99538.30;135969;1276;25346;-70
2023/06/03 04:30:36;;;;;;;22.60;5.10;;;;;;;11.95;62.03;99536.48;135953;1276;24344;-66
2023/06/03 04:33:39;;;;;;;50.60;9.90;;;;;;;12.17;61.90;99538.10;135984;1276;22546;-66
2023/06/03 04:36:41;;;;;;;39.40;7.70;;;;;;;12.40;59.74;99541.02;136046;1276;22544;-68
2023/06/03 04:39:44;;;;;;;;;;;;;;;12.62;59.56;99545.55;135961;1276;22620;-65
2023/06/03 04:42:47;;;;;;;32.40;5.60;;;;;;;12.77;57.81;99542.92;135943;1276;22516;-66
2023/06/03 04:45:50;;;;;;;20.20;4.10;;;;;;;12.86;57.13;99546.92;135904;1276;22526;-70
2023/06/03 04:48:53;;;;;;;;;;;;;;;12.90;57.35;99547.63;135963;1266;22520;-67
2023/06/03 04:51:55;;;;;;;18.70;3.60;;;;;;;13.13;57.54;99548.89;135928;1276;22536;-71
2023/06/03 04:54:57;;;;;;;13.40;3.50;;;;;;;13.16;56.10;99550.09;136020;1276;22535;-70
2023/06/03 04:58:02;;;;;;;;;;;;;;;13.21;55.47;99553.47;136055;1276;22498;-71
2023/06/03 05:01:08;;;;;;;18.80;4.30;;;;;;;13.38;55.39;99551.12;136022;1256;24244;-71
2023/06/03 05:04:13;;;;;;;23.00;4.30;;;;;;;13.55;55.69;99553.39;136057;1276;22623;-70
2023/06/03 05:07:16;;;;;;;19.50;4.70;;;;;;;13.89;56.15;99556.35;135989;1276;22513;-71
2023/06/03 05:10:19;;;;;;;;;;;;;;;14.12;55.89;99557.38;136074;1276;22501;-69
2023/06/03 05:13:21;;;;;;;18.70;4.30;;;;;;;14.36;53.78;99562.17;136085;1276;23873;-71
2023/06/03 05:16:24;;;;;;;19.00;4.70;;;;;;;14.63;54.12;99563.97;136070;1276;22549;-70
2023/06/03 05:19:26;;;;;;;;;;;;;;;14.94;53.45;99562.06;136016;1276;25968;-71
2023/06/03 05:22:29;;;;;;;13.40;3.70;;;;;;;15.15;53.21;99567.01;136015;1276;22535;-72
2023/06/03 05:25:31;;;;;;;11.60;2.80;;;;;;;15.41;51.67;99570.00;136046;1258;22546;-70
2023/06/03 05:28:33;;;;;;;14.90;2.90;;;;;;;15.47;51.31;99573.67;136038;1276;22583;-68
2023/06/03 05:31:36;;;;;;;14.00;2.70;;;;;;;15.46;49.65;99578.62;136062;1276;25224;-71
2023/06/03 05:34:38;;;;;;;14.70;3.00;;;;;;;15.56;50.11;99578.48;136065;1276;25444;-67
2023/06/03 05:37:41;;;;;;;16.60;3.20;;;;;;;15.75;49.48;99577.17;135996;1259;22523;-69
2023/06/03 05:40:43;;;;;;;;;;;;;;;16.20;50.46;99580.54;136054;1276;22533;-69
2023/06/03 05:43:46;;;;;;;;;;;;;;;16.58;48.04;99573.38;136046;1276;22543;-70
2023/06/03 05:46:48;;;;;;;10.80;2.60;;;;;;;16.47;46.98;99576.98;136109;1276;22543;-70
2023/06/03 05:49:51;;;;;;;;;;;;;;;16.40;48.05;99575.20;136061;1276;22620;-72
2023/06/03 05:52:55;;;;;;;14.60;3.20;;;;;;;16.71;49.00;99576.25;136033;1276;22531;-68
2023/06/03 05:55:57;;;;;;;14.70;3.00;;;;;;;17.05;49.03;99578.69;136008;1276;22542;-71
2023/06/03 05:59:00;;;;;;;12.50;3.10;;;;;;;17.30;47.77;99575.91;136050;1276;22528;-67
2023/06/03 06:02:02;;;;;;;;;;;;;;;17.73;47.55;99570.61;136024;1276;22494;-72
2023/06/03 06:05:04;;;;;;;10.90;2.80;;;;;;;17.90;46.01;99577.79;136031;1276;22633;-75
2023/06/03 06:08:07;;;;;;;;;;;;;;;17.98;46.17;99577.91;136052;1276;23109;-71
2023/06/03 06:11:09;;;;;;;10.60;2.80;;;;;;;18.31;46.84;99580.44;136062;1276;22512;-68
2023/06/03 06:14:12;;;;;;;9.20;2.40;;;;;;;18.59;45.75;99580.05;136043;1276;22626;-74
2023/06/03 06:17:16;;;;;;;;;;;;;;;18.61;45.02;99580.75;136088;1276;22500;-70
2023/06/03 06:20:19;;;;;;;10.50;2.30;;;;;;;18.59;44.01;99581.63;136043;1276;22531;-71
2023/06/03 06:23:21;;;;;;;9.60;2.40;;;;;;;18.53;43.55;99583.78;136021;1254;24299;-70
2023/06/03 06:26:25;;;;;;;11.80;2.40;;;;;;;18.48;43.57;99579.23;136003;1258;22549;-69
2023/06/03 06:29:27;;;;;;;8.10;2.00;;;;;;;18.41;43.13;99581.22;136051;1254;24212;-71
2023/06/03 06:32:30;;;;;;;;;;;;;;;18.32;43.20;99582.84;136042;1276;22493;-71
2023/06/03 06:35:32;;;;;;;11.60;2.50;;;;;;;18.29;42.49;99581.75;136015;1276;22523;-74
2023/06/03 06:38:35;;;;;;;9.90;2.40;;;;;;;18.17;41.72;99584.03;136022;1276;25414;-68
2023/06/03 06:41:37;;;;;;;11.50;2.50;;;;;;;18.11;42.86;99586.77;136033;1254;24241;-71
2023/06/03 06:44:39;;;;;;;9.70;2.40;;;;;;;18.29;43.12;99588.02;136054;1276;22531;-69
2023/06/03 06:47:42;;;;;;;12.70;2.20;;;;;;;18.30;42.82;99588.82;136033;1276;22530;-71
2023/06/03 06:50:44;;;;;;;9.20;2.00;;;;;;;18.53;42.60;99586.20;136037;1276;22633;-69
2023/06/03 06:53:48;;;;;;;10.10;2.30;;;;;;;18.82;42.45;99582.39;135996;1276;22523;-68
2023/06/03 06:56:50;;;;;;;10.50;2.50;;;;;;;19.08;42.29;99582.63;136035;1276;22524;-71
2023/06/03 06:59:56;;;;;;;7.40;2.30;;;;;;;19.46;42.25;99586.42;136052;1276;22661;-73
2023/06/03 07:02:58;;;;;;;12.70;2.50;;;;;;;19.57;40.93;99587.98;136058;1276;22526;-70
2023/06/03 07:06:03;;;;;;;8.60;2.20;;;;;;;19.89;41.38;99585.62;135975;1276;22527;-70
2023/06/03 07:09:06;;;;;;;19.60;2.70;;;;;;;20.36;40.91;99585.58;136043;1276;23425;-71
2023/06/03 07:12:09;;;;;;;17.70;2.70;;;;;;;20.66;40.32;99589.64;135988;1276;22535;-69
2023/06/03 07:15:11;;;;;;;18.20;2.90;;;;;;;20.93;39.48;99587.39;136041;1276;22626;-69
2023/06/03 07:18:14;;;;;;;12.70;2.50;;;;;;;21.09;39.46;99586.57;136008;1276;22636;-66
2023/06/03 07:21:16;;;;;;;6.20;2.10;;;;;;;21.38;39.76;99588.15;136017;1276;25412;-72
2023/06/03 07:24:21;;;;;;;13.50;2.50;;;;;;;21.59;38.81;99589.42;136008;1276;22555;-70
2023/06/03 07:27:24;;;;;;;9.60;2.50;;;;;;;21.73;38.68;99585.48;136021;1276;22520;-70
2023/06/03 07:30:26;;;;;;;11.10;2.30;;;;;;;21.92;38.14;99585.97;136008;1276;22520;-69
2023/06/03 07:33:28;;;;;;;13.60;2.80;;;;;;;22.18;38.01;99591.84;136030;1276;22632;-69
2023/06/03 07:36:31;;;;;;;9.10;2.00;;;;;;;22.25;36.91;99589.85;136028;1276;22589;-73
2023/06/03 07:39:33;;;;;;;8.30;2.50;;;;;;;22.04;36.59;99596.52;136016;1276;22531;-70
2023/06/03 07:42:36;;;;;;;10.80;2.40;;;;;;;21.76;36.67;99593.46;136021;1276;22628;-71
2023/06/03 07:45:38;;;;;;;10.00;2.40;;;;;;;21.75;36.28;99594.70;136013;1276;22530;-72
2023/06/03 07:48:41;;;;;;;10.00;2.00;;;;;;;21.42;36.54;99593.63;136018;1276;22523;-74
2023/06/03 07:51:46;;;;;;;9.20;2.30;;;;;;;21.09;36.32;99596.94;136044;1276;22532;-72
2023/06/03 07:54:49;;;;;;;11.30;2.10;;;;;;;20.99;36.57;99596.08;136004;1276;22545;-72
2023/06/03 07:57:51;;;;;;;9.80;2.00;;;;;;;20.97;35.22;99598.00;136016;1276;22524;-75
2023/06/03 08:00:54;;;;;;;5.90;2.10;;;;;;;21.08;33.82;99598.47;136012;1276;22519;-72
2023/06/03 08:04:00;;;;;;;8.20;2.10;;;;;;;21.36;33.53;99600.41;135991;1276;22557;-71
2023/06/03 08:07:02;;;;;;;9.30;2.40;;;;;;;21.38;33.88;99598.49;136014;1276;22513;-74
2023/06/03 08:10:05;;;;;;;7.50;2.20;;;;;;;21.57;35.42;99591.38;135984;1276;22528;-74
2023/06/03 08:13:07;;;;;;;6.80;1.90;;;;;;;22.17;33.72;99585.44;136003;1276;22658;-72
2023/06/03 08:16:09;;;;;;;15.00;2.50;;;;;;;22.13;34.31;99590.67;135998;1276;22521;-69
2023/06/03 08:19:15;;;;;;;6.20;1.80;;;;;;;22.44;34.42;99592.13;136010;1276;22523;-72
2023/06/03 08:22:17;;;;;;;8.00;2.00;;;;;;;22.53;34.06;99584.35;136008;1259;22538;-72
2023/06/03 08:25:20;;;;;;;17.40;3.10;;;;;;;22.49;32.05;99584.38;135990;1259;22516;-74
2023/06/03 08:28:22;;;;;;;13.60;2.60;;;;;;;22.18;31.99;99586.80;135984;1276;22523;-73
2023/06/03 08:31:25;;;;;;;26.00;2.80;;;;;;;22.52;32.79;99585.45;135999;1276;22527;-75
2023/06/03 08:34:27;;;;;;;13.10;2.10;;;;;;;22.91;32.03;99588.05;135997;1276;22623;-76
2023/06/03 08:37:30;;;;;;;14.30;2.10;;;;;;;23.32;32.88;99590.70;136007;1275;22648;-67
2023/06/03 08:40:32;;;;;;;14.70;2.20;;;;;;;23.72;31.56;99592.08;136037;1276;22514;-73
2023/06/03 08:43:35;;;;;;;19.10;2.10;;;;;;;23.93;31.44;99597.26;136002;1263;22635;-72
2023/06/03 08:46:37;;;;;;;45.00;5.10;;;;;;;24.25;31.35;99589.77;136045;1259;22654;-72
2023/06/03 08:49:40;;;;;;;64.20;7.40;;;;;;;24.58;30.90;99588.46;135996;1276;22520;-72
2023/06/03 08:52:42;;;;;;;52.50;6.80;;;;;;;24.48;28.73;99596.35;136008;1276;22520;-73
2023/06/03 08:55:44;;;;;;;85.60;8.50;;;;;;;24.03;28.97;99599.98;135983;1258;22528;-74
2023/06/03 08:58:47;;;;;;;29.60;3.60;;;;;;;24.07;29.04;99599.09;135940;1276;22548;-73
2023/06/03 09:01:49;;;;;;;49.90;5.10;;;;;;;24.17;29.29;99599.55;135991;1276;22532;-82
2023/06/03 09:04:52;;;;;;;14.50;1.90;;;;;;;24.36;30.55;99595.98;135999;1259;24189;-78
2023/06/03 09:07:54;;;;;;;17.20;2.60;;;;;;;24.57;28.61;99596.61;136025;1276;22514;-75
2023/06/03 09:10:57;;;;;;;19.90;2.70;;;;;;;24.15;28.71;99602.55;135961;1276;22646;-72
2023/06/03 09:13:59;;;;;;;8.40;1.80;;;;;;;24.48;29.54;99596.36;135933;1276;22674;-75
2023/06/03 09:17:01;;;;;;;20.30;2.70;;;;;;;24.52;28.19;99592.46;135928;1276;22576;-73
2023/06/03 09:20:05;;;;;;;10.60;1.60;;;;;;;24.54;28.10;99594.81;135905;1276;22543;-77
2023/06/03 09:23:08;;;;;;;6.90;2.10;;;;;;;24.71;28.42;99593.52;135896;1275;22516;-74
2023/06/03 09:26:10;;;;;;;12.50;1.70;;;;;;;24.73;27.33;99590.77;135962;1276;22524;-73
2023/06/03 09:29:13;;;;;;;8.90;1.70;;;;;;;24.87;28.06;99592.69;135964;1276;22533;-72
2023/06/03 09:32:16;;;;;;;15.60;2.50;;;;;;;25.07;27.42;99592.69;136011;1276;22524;-76
2023/06/03 09:35:18;;;;;;;13.60;2.10;;;;;;;25.12;27.27;99591.08;135943;1276;22528;-71
2023/06/03 09:38:21;;;;;;;13.30;2.30;;;;;;;24.99;26.81;99595.98;135988;1276;23415;-76
2023/06/03 09:41:23;;;;;;;9.60;2.00;;;;;;;25.18;27.27;99590.17;135991;1276;22696;-70
2023/06/03 09:44:26;;;;;;;5.10;1.80;;;;;;;25.03;26.37;99590.91;135922;1260;22763;-73
2023/06/03 09:47:28;;;;;;;7.20;1.60;;;;;;;24.46;27.06;99592.98;135994;1276;24247;-67
2023/06/03 09:50:30;;;;;;;4.50;1.60;;;;;;;24.26;27.06;99586.29;135971;1276;22537;-71
2023/06/03 09:53:33;;;;;;;7.00;1.50;;;;;;;24.25;27.79;99593.05;135983;1276;22527;-71
2023/06/03 09:56:35;;;;;;;7.30;1.80;;;;;;;24.08;27.26;99589.14;136017;1276;22756;-69
2023/06/03 09:59:38;;;;;;;8.60;2.00;;;;;;;24.33;27.50;99584.18;135995;1276;23874;-68
2023/06/03 10:02:40;;;;;;;14.00;2.30;;;;;;;24.76;27.75;99578.89;136019;1259;24215;-69
2023/06/03 10:05:43;;;;;;;16.90;2.10;;;;;;;25.15;27.44;99580.75;135997;1276;24261;-71
2023/06/03 10:08:45;;;;;;;9.00;1.40;;;;;;;25.39;25.72;99577.74;135962;1276;22510;-72
2023/06/03 10:11:48;;;;;;;14.00;2.50;;;;;;;25.64;26.83;99580.09;136004;1276;22538;-68
2023/06/03 10:14:50;;;;;;;6.50;1.60;;;;;;;25.62;25.60;99577.15;136015;1276;22628;-68
2023/06/03 10:17:53;;;;;;;15.10;2.90;;;;;;;25.59;26.68;99576.71;135991;1276;25478;-67
2023/06/03 10:20:55;;;;;;;4.20;1.40;;;;;;;25.76;25.88;99574.83;135993;1276;22527;-70
2023/06/03 10:23:57;;;;;;;4.60;1.20;;;;;;;25.77;25.56;99573.05;135980;1256;22518;-70
2023/06/03 10:27:00;;;;;;;4.60;1.50;;;;;;;25.81;25.98;99571.93;135944;1276;23767;-67
2023/06/03 10:30:02;;;;;;;6.20;1.60;;;;;;;26.29;25.93;99562.09;135967;1266;22629;-67
2023/06/03 10:33:05;;;;;;;7.10;1.50;;;;;;;26.38;24.91;99563.84;135942;1276;22516;-70
2023/06/03 10:36:07;;;;;;;9.20;1.70;;;;;;;26.27;25.24;99558.59;135966;1276;22616;-70
2023/06/03 10:39:10;;;;;;;8.30;1.40;;;;;;;26.40;24.58;99558.98;135989;1276;25268;-68
2023/06/03 10:42:12;;;;;;;7.50;1.40;;;;;;;26.06;23.46;99551.02;135988;1259;22517;-69
2023/06/03 10:45:15;;;;;;;5.80;1.60;;;;;;;25.56;23.67;99555.70;135977;1276;22535;-68
2023/06/03 10:48:17;;;;;;;4.90;1.00;;;;;;;25.30;24.27;99549.83;135935;1276;23141;-67
2023/06/03 10:51:20;;;;;;;6.60;1.70;;;;;;;25.45;24.68;99551.79;135971;1276;22542;-69
2023/06/03 10:54:23;;;;;;;4.80;1.60;;;;;;;25.62;23.42;99547.89;131839;1276;5374822;-67
2023/06/03 10:57:25;;;;;;;5.90;1.40;;;;;;;25.48;22.45;99548.59;135921;1276;22519;-69
2023/06/03 11:00:36;;;;;;;6.60;1.20;;;;;;;25.87;24.45;99542.46;135893;1276;22531;-73
2023/06/03 11:03:39;;;;;;;10.70;1.50;;;;;;;26.44;24.30;99540.63;135952;1257;24209;-71
2023/06/03 11:06:41;;;;;;;3.10;0.90;;;;;;;26.89;24.25;99535.20;135972;1276;22551;-73
2023/06/03 11:09:43;;;;;;;4.70;1.50;;;;;;;27.24;23.75;99533.34;135965;1276;22531;-72
2023/06/03 11:12:46;;;;;;;7.50;1.70;;;;;;;27.49;22.86;99533.14;135979;1276;22545;-69
2023/06/03 11:15:48;;;;;;;7.40;1.50;;;;;;;27.43;22.15;99532.70;135965;1276;22605;-70
2023/06/03 11:18:51;;;;;;;8.00;1.40;;;;;;;27.29;23.56;99527.73;135988;1276;24372;-69
2023/06/03 11:21:53;;;;;;;8.40;1.90;;;;;;;27.53;23.57;99530.65;135960;1276;22546;-69
2023/06/03 11:24:56;;;;;;;7.30;1.40;;;;;;;27.85;23.76;99531.61;135914;1276;24244;-73
2023/06/03 11:27:58;;;;;;;8.40;2.00;;;;;;;28.25;23.79;99529.00;135969;1276;22517;-73
2023/06/03 11:31:01;;;;;;;6.90;1.50;;;;;;;28.52;23.56;99530.52;135932;1276;23029;-72
2023/06/03 11:34:03;;;;;;;5.40;1.20;;;;;;;28.52;22.17;99524.76;135980;1276;22536;-70
2023/06/03 11:37:06;;;;;;;8.70;1.40;;;;;;;28.05;22.52;99530.61;135936;1259;22517;-72
2023/06/03 11:40:08;;;;;;;8.00;1.60;;;;;;;28.05;22.82;99527.91;135933;1276;22516;-71
2023/06/03 11:43:11;;;;;;;4.10;1.30;;;;;;;28.31;22.06;99527.38;135988;1276;22531;-68
2023/06/03 11:46:13;;;;;;;8.80;1.30;;;;;;;27.59;21.72;99525.40;135955;1276;22632;-72
2023/06/03 11:49:16;;;;;;;8.10;1.80;;;;;;;26.92;22.26;99523.53;135943;1276;22520;-69
2023/06/03 11:52:18;;;;;;;5.10;1.50;;;;;;;26.79;22.32;99518.55;135951;1276;22526;-67
2023/06/03 11:55:21;;;;;;;4.80;1.70;;;;;;;26.60;22.88;99517.89;135936;1276;22546;-70
2023/06/03 11:58:24;;;;;;;6.60;1.40;;;;;;;26.65;22.97;99517.98;135938;1276;22542;-71
2023/06/03 12:01:26;;;;;;;6.30;1.20;;;;;;;26.56;21.58;99515.57;135945;1276;22528;-70
2023/06/03 12:04:29;;;;;;;4.90;1.50;;;;;;;26.26;22.98;99508.46;135950;1276;22591;-66
2023/06/03 12:07:31;;;;;;;9.20;1.70;;;;;;;26.32;23.51;99507.41;135963;1276;22535;-73
2023/06/03 12:10:34;;;;;;;7.00;1.70;;;;;;;26.92;24.10;99506.13;135974;1276;22527;-73
2023/06/03 12:13:36;;;;;;;8.10;1.60;;;;;;;27.29;23.67;99502.58;135997;1276;22527;-65
2023/06/03 12:16:39;;;;;;;22.40;3.30;;;;;;;27.35;22.96;99506.00;135889;1276;22527;-68
2023/06/03 12:19:41;;;;;;;4.50;1.50;;;;;;;27.62;23.40;99506.32;135903;1276;22544;-69
2023/06/03 12:22:43;;;;;;;9.80;2.00;;;;;;;27.70;22.32;99505.88;135875;1276;22520;-72
2023/06/03 12:25:46;;;;;;;11.00;1.50;;;;;;;27.68;24.03;99497.77;135951;1276;24027;-71
2023/06/03 12:28:48;;;;;;;8.80;1.80;;;;;;;27.71;22.76;99500.63;135914;1276;24262;-70
2023/06/03 12:31:51;;;;;;;7.20;1.30;;;;;;;28.10;23.82;99497.57;135961;1267;22530;-66
2023/06/03 12:34:53;;;;;;;6.50;1.30;;;;;;;28.43;22.52;99492.26;135938;1276;22524;-68
2023/06/03 12:37:56;;;;;;;7.30;1.50;;;;;;;28.77;22.74;99489.79;135960;1276;22632;-71
2023/06/03 12:40:58;;;;;;;4.90;1.40;;;;;;;28.37;21.69;99493.32;135936;1276;22554;-71
2023/06/03 12:44:01;;;;;;;6.20;1.60;;;;;;;27.82;21.82;99491.21;135927;1276;22541;-69
2023/06/03 12:47:03;;;;;;;6.40;1.70;;;;;;;27.62;21.85;99488.63;135950;1276;22543;-69
2023/06/03 12:50:06;;;;;;;5.30;1.60;;;;;;;27.29;21.82;99481.63;135915;1276;23293;-69
2023/06/03 12:53:08;;;;;;;5.00;1.60;;;;;;;27.03;21.95;99473.17;135954;1276;22536;-73
2023/06/03 12:56:12;;;;;;;3.30;1.00;;;;;;;26.96;21.72;99471.41;135908;1276;22539;-71
2023/06/03 12:59:14;;;;;;;3.10;1.20;;;;;;;26.71;22.42;99470.02;135944;1276;22631;-72
2023/06/03 13:02:16;;;;;;;5.60;1.10;;;;;;;26.70;22.05;99474.38;135949;1276;22520;-70
2023/06/03 13:05:21;;;;;;;5.90;1.20;;;;;;;26.69;21.68;99470.42;135944;1276;22516;-69
2023/06/03 13:08:23;;;;;;;6.00;1.50;;;;;;;26.99;22.21;99466.00;135916;1254;24215;-70
2023/06/03 13:11:26;;;;;;;5.10;1.20;;;;;;;27.00;21.53;99468.00;135930;1276;22543;-70
2023/06/03 13:14:28;;;;;;;4.80;1.30;;;;;;;26.53;21.91;99468.32;135962;1276;22514;-71
2023/06/03 13:17:31;;;;;;;3.00;1.20;;;;;;;26.41;22.14;99467.24;135950;1276;22520;-71
2023/06/03 13:20:33;;;;;;;8.60;1.60;;;;;;;26.72;22.43;99462.69;135948;1276;22523;-72
2023/06/03 13:23:36;;;;;;;7.20;1.20;;;;;;;27.28;22.69;99459.08;135949;1276;24212;-73
2023/06/03 13:26:39;;;;;;;8.20;1.60;;;;;;;27.28;22.44;99454.73;135927;1276;22548;-70
2023/06/03 13:29:41;;;;;;;7.70;1.40;;;;;;;27.54;22.68;99458.51;135932;1276;22553;-70
2023/06/03 13:32:44;;;;;;;5.80;2.10;;;;;;;28.05;22.81;99453.80;135934;1276;22542;-67
2023/06/03 13:35:46;;;;;;;6.20;1.50;;;;;;;28.11;21.31;99449.90;135962;1276;22561;-72
2023/06/03 13:38:49;;;;;;;5.70;1.40;;;;;;;27.47;21.22;99455.56;135918;1276;22530;-74
2023/06/03 13:41:51;;;;;;;5.60;1.20;;;;;;;26.98;21.59;99455.64;135938;1276;24183;-64
2023/06/03 13:44:54;;;;;;;5.20;1.70;;;;;;;26.92;21.76;99454.98;135897;1276;22550;-68
2023/06/03 13:47:56;;;;;;;3.50;1.50;;;;;;;26.85;21.11;99455.56;135875;1276;22526;-70
2023/06/03 13:50:59;;;;;;;3.70;1.20;;;;;;;26.58;21.24;99451.98;135904;1276;22539;-68
2023/06/03 13:54:02;;;;;;;4.80;1.40;;;;;;;26.62;22.28;99449.14;135873;1276;22530;-70
2023/06/03 13:57:05;;;;;;;6.10;1.60;;;;;;;26.91;21.90;99444.69;135852;1276;22520;-69
2023/06/03 14:00:08;;;;;;;8.10;1.40;;;;;;;27.10;21.52;99442.39;135934;1276;22525;-70
2023/06/03 14:03:10;;;;;;;10.20;2.70;;;;;;;27.21;21.62;99439.55;135950;1276;22543;-66
2023/06/03 14:06:15;;;;;;;7.70;1.40;;;;;;;27.28;22.62;99441.14;135939;1276;22569;-70
2023/06/03 14:09:17;;;;;;;4.60;1.30;;;;;;;27.90;22.69;99432.23;135912;1259;22539;-66
2023/06/03 14:12:20;;;;;;;10.30;2.60;;;;;;;28.30;22.17;99427.11;135885;1276;22601;-65
2023/06/03 14:15:23;;;;;;;7.40;1.60;;;;;;;27.95;20.33;99433.68;135960;1276;22547;-68